sensor_id;sensor_type;location;lat;lon;timestamp;P1;durP1;ratioP1;P2;durP2;ratioP2
25479;SDS011;13393;49.378;8.686;2022-07-10T00:01:13;3.40;;;3.03;;
25479;SDS011;13393;49.378;8.686;2022-07-10T00:03:39;6.35;;;3.47;;
25479;SDS011;13393;49.378;8.686;2022-07-10T00:06:09;3.70;;;3.40;;
25479;SDS011;13393;49.378;8.686;2022-07-10T00:08:37;3.88;;;3.42;;
25479;SDS011;13393;49.378;8.686;2022-07-10T00:11:03;5.03;;;3.70;;
25479;SDS011;13393;49.378;8.686;2022-07-10T00:13:30;3.92;;;3.53;;
25479;SDS011;13393;49.378;8.686;2022-07-10T00:15:56;5.13;;;3.50;;
25479;SDS011;13393;49.378;8.686;2022-07-10T00:18:23;3.80;;;3.50;;
25479;SDS011;13393;49.378;8.686;2022-07-10T00:20:49;3.92;;;3.50;;
25479;SDS011;13393;49.378;8.686;2022-07-10T00:23:16;3.90;;;3.50;;
25479;SDS011;13393;49.378;8.686;2022-07-10T00:25:44;6.50;;;4.20;;
25479;SDS011;13393;49.378;8.686;2022-07-10T00:28:10;3.60;;;3.30;;
25479;SDS011;13393;49.378;8.686;2022-07-10T00:30:36;4.30;;;3.50;;
25479;SDS011;13393;49.378;8.686;2022-07-10T00:33:03;3.92;;;3.53;;
25479;SDS011;13393;49.378;8.686;2022-07-10T00:35:29;4.68;;;4.15;;
25479;SDS011;13393;49.378;8.686;2022-07-10T00:37:56;4.28;;;3.88;;
25479;SDS011;13393;49.378;8.686;2022-07-10T00:40:22;3.80;;;3.50;;
25479;SDS011;13393;49.378;8.686;2022-07-10T00:42:50;4.40;;;3.80;;
25479;SDS011;13393;49.378;8.686;2022-07-10T00:45:17;3.85;;;3.55;;
25479;SDS011;13393;49.378;8.686;2022-07-10T00:47:43;3.90;;;3.50;;
25479;SDS011;13393;49.378;8.686;2022-07-10T00:50:10;4.45;;;4.05;;
25479;SDS011;13393;49.378;8.686;2022-07-10T00:52:37;5.82;;;4.47;;
25479;SDS011;13393;49.378;8.686;2022-07-10T00:55:05;4.53;;;4.13;;
25479;SDS011;13393;49.378;8.686;2022-07-10T00:57:31;4.05;;;3.75;;
25479;SDS011;13393;49.378;8.686;2022-07-10T01:00:00;6.80;;;4.15;;
25479;SDS011;13393;49.378;8.686;2022-07-10T01:02:26;4.45;;;4.05;;
25479;SDS011;13393;49.378;8.686;2022-07-10T01:04:53;4.38;;;3.97;;
25479;SDS011;13393;49.378;8.686;2022-07-10T01:07:19;5.50;;;4.80;;
25479;SDS011;13393;49.378;8.686;2022-07-10T01:09:46;5.95;;;4.85;;
25479;SDS011;13393;49.378;8.686;2022-07-10T01:12:12;5.97;;;4.70;;
25479;SDS011;13393;49.378;8.686;2022-07-10T01:14:39;5.45;;;4.90;;
25479;SDS011;13393;49.378;8.686;2022-07-10T01:17:08;7.70;;;4.75;;
25479;SDS011;13393;49.378;8.686;2022-07-10T01:19:35;5.65;;;4.70;;
25479;SDS011;13393;49.378;8.686;2022-07-10T01:22:03;5.18;;;4.68;;
25479;SDS011;13393;49.378;8.686;2022-07-10T01:24:29;5.60;;;4.82;;
25479;SDS011;13393;49.378;8.686;2022-07-10T01:26:56;5.55;;;4.97;;
25479;SDS011;13393;49.378;8.686;2022-07-10T01:29:22;7.20;;;6.53;;
25479;SDS011;13393;49.378;8.686;2022-07-10T01:31:49;8.18;;;7.38;;
25479;SDS011;13393;49.378;8.686;2022-07-10T01:34:15;7.30;;;6.47;;
25479;SDS011;13393;49.378;8.686;2022-07-10T01:36:42;7.53;;;6.82;;
25479;SDS011;13393;49.378;8.686;2022-07-10T01:39:10;8.07;;;7.28;;
25479;SDS011;13393;49.378;8.686;2022-07-10T01:41:37;7.35;;;6.57;;
25479;SDS011;13393;49.378;8.686;2022-07-10T01:44:03;9.07;;;7.03;;
25479;SDS011;13393;49.378;8.686;2022-07-10T01:46:30;8.07;;;7.28;;
25479;SDS011;13393;49.378;8.686;2022-07-10T01:48:56;10.68;;;7.43;;
25479;SDS011;13393;49.378;8.686;2022-07-10T01:51:23;7.88;;;7.07;;
25479;SDS011;13393;49.378;8.686;2022-07-10T01:53:49;9.77;;;7.50;;
25479;SDS011;13393;49.378;8.686;2022-07-10T01:56:17;9.30;;;6.88;;
25479;SDS011;13393;49.378;8.686;2022-07-10T01:58:43;9.13;;;6.60;;
25479;SDS011;13393;49.378;8.686;2022-07-10T02:01:10;7.03;;;6.22;;
25479;SDS011;13393;49.378;8.686;2022-07-10T02:03:36;9.95;;;5.95;;
25479;SDS011;13393;49.378;8.686;2022-07-10T02:06:20;6.47;;;5.63;;
25479;SDS011;13393;49.378;8.686;2022-07-10T02:08:47;6.75;;;5.82;;
25479;SDS011;13393;49.378;8.686;2022-07-10T02:11:13;6.70;;;6.00;;
25479;SDS011;13393;49.378;8.686;2022-07-10T02:13:41;9.63;;;6.47;;
25479;SDS011;13393;49.378;8.686;2022-07-10T02:16:08;6.28;;;5.68;;
25479;SDS011;13393;49.378;8.686;2022-07-10T02:18:35;6.53;;;5.93;;
25479;SDS011;13393;49.378;8.686;2022-07-10T02:21:03;7.55;;;6.07;;
25479;SDS011;13393;49.378;8.686;2022-07-10T02:23:29;6.93;;;6.10;;
25479;SDS011;13393;49.378;8.686;2022-07-10T02:25:56;6.38;;;5.30;;
25479;SDS011;13393;49.378;8.686;2022-07-10T02:28:22;5.97;;;5.15;;
25479;SDS011;13393;49.378;8.686;2022-07-10T02:30:50;6.13;;;5.53;;
25479;SDS011;13393;49.378;8.686;2022-07-10T02:33:16;5.30;;;4.80;;
25479;SDS011;13393;49.378;8.686;2022-07-10T02:35:43;5.82;;;5.25;;
25479;SDS011;13393;49.378;8.686;2022-07-10T02:38:09;5.22;;;4.70;;
25479;SDS011;13393;49.378;8.686;2022-07-10T02:40:36;8.18;;;4.63;;
25479;SDS011;13393;49.378;8.686;2022-07-10T02:43:02;9.25;;;4.95;;
25479;SDS011;13393;49.378;8.686;2022-07-10T02:45:29;4.82;;;4.30;;
25479;SDS011;13393;49.378;8.686;2022-07-10T02:47:56;6.10;;;4.65;;
25479;SDS011;13393;49.378;8.686;2022-07-10T02:50:23;8.45;;;4.93;;
25479;SDS011;13393;49.378;8.686;2022-07-10T02:52:49;8.68;;;5.50;;
25479;SDS011;13393;49.378;8.686;2022-07-10T02:55:16;5.30;;;4.78;;
25479;SDS011;13393;49.378;8.686;2022-07-10T02:57:42;7.18;;;4.45;;
25479;SDS011;13393;49.378;8.686;2022-07-10T03:00:09;7.07;;;4.55;;
25479;SDS011;13393;49.378;8.686;2022-07-10T03:02:36;6.13;;;3.80;;
25479;SDS011;13393;49.378;8.686;2022-07-10T03:05:05;7.82;;;3.28;;
25479;SDS011;13393;49.378;8.686;2022-07-10T03:07:31;4.68;;;3.00;;
25479;SDS011;13393;49.378;8.686;2022-07-10T03:09:58;3.97;;;3.03;;
25479;SDS011;13393;49.378;8.686;2022-07-10T03:12:24;5.57;;;3.40;;
25479;SDS011;13393;49.378;8.686;2022-07-10T03:14:51;4.82;;;3.35;;
25479;SDS011;13393;49.378;8.686;2022-07-10T03:17:17;8.20;;;3.20;;
25479;SDS011;13393;49.378;8.686;2022-07-10T03:19:44;8.00;;;3.65;;
25479;SDS011;13393;49.378;8.686;2022-07-10T03:22:12;8.13;;;3.17;;
25479;SDS011;13393;49.378;8.686;2022-07-10T03:24:38;5.13;;;3.33;;
25479;SDS011;13393;49.378;8.686;2022-07-10T03:27:05;4.47;;;2.85;;
25479;SDS011;13393;49.378;8.686;2022-07-10T03:29:31;5.47;;;3.00;;
25479;SDS011;13393;49.378;8.686;2022-07-10T03:31:58;6.85;;;3.00;;
25479;SDS011;13393;49.378;8.686;2022-07-10T03:34:24;4.95;;;2.50;;
25479;SDS011;13393;49.378;8.686;2022-07-10T03:36:50;5.20;;;2.60;;
25479;SDS011;13393;49.378;8.686;2022-07-10T03:39:19;4.60;;;2.65;;
25479;SDS011;13393;49.378;8.686;2022-07-10T03:41:45;4.70;;;2.33;;
25479;SDS011;13393;49.378;8.686;2022-07-10T03:44:12;4.65;;;2.20;;
25479;SDS011;13393;49.378;8.686;2022-07-10T03:46:38;5.45;;;2.30;;
25479;SDS011;13393;49.378;8.686;2022-07-10T03:49:04;3.58;;;2.20;;
25479;SDS011;13393;49.378;8.686;2022-07-10T03:51:31;3.50;;;2.42;;
25479;SDS011;13393;49.378;8.686;2022-07-10T03:53:57;2.20;;;2.00;;
25479;SDS011;13393;49.378;8.686;2022-07-10T03:56:25;4.07;;;2.58;;
25479;SDS011;13393;49.378;8.686;2022-07-10T03:59:09;5.00;;;2.65;;
25479;SDS011;13393;49.378;8.686;2022-07-10T04:01:36;5.68;;;2.67;;
25479;SDS011;13393;49.378;8.686;2022-07-10T04:04:02;5.13;;;2.40;;
25479;SDS011;13393;49.378;8.686;2022-07-10T04:06:29;5.13;;;2.70;;
25479;SDS011;13393;49.378;8.686;2022-07-10T04:08:55;5.55;;;2.42;;
25479;SDS011;13393;49.378;8.686;2022-07-10T04:11:22;4.70;;;2.45;;
25479;SDS011;13393;49.378;8.686;2022-07-10T04:13:50;3.53;;;2.10;;
25479;SDS011;13393;49.378;8.686;2022-07-10T04:16:16;5.88;;;2.85;;
25479;SDS011;13393;49.378;8.686;2022-07-10T04:18:43;3.10;;;2.30;;
25479;SDS011;13393;49.378;8.686;2022-07-10T04:21:09;4.07;;;2.20;;
25479;SDS011;13393;49.378;8.686;2022-07-10T04:23:36;4.95;;;2.13;;
25479;SDS011;13393;49.378;8.686;2022-07-10T04:26:02;5.75;;;1.98;;
25479;SDS011;13393;49.378;8.686;2022-07-10T04:28:29;3.38;;;2.17;;
25479;SDS011;13393;49.378;8.686;2022-07-10T04:30:57;5.10;;;2.30;;
25479;SDS011;13393;49.378;8.686;2022-07-10T04:33:24;4.63;;;2.15;;
25479;SDS011;13393;49.378;8.686;2022-07-10T04:35:52;7.35;;;2.22;;
25479;SDS011;13393;49.378;8.686;2022-07-10T04:38:19;4.50;;;2.10;;
25479;SDS011;13393;49.378;8.686;2022-07-10T04:40:45;3.17;;;1.90;;
25479;SDS011;13393;49.378;8.686;2022-07-10T04:43:12;3.08;;;1.95;;
25479;SDS011;13393;49.378;8.686;2022-07-10T04:45:38;6.18;;;2.28;;
25479;SDS011;13393;49.378;8.686;2022-07-10T04:48:06;5.93;;;2.60;;
25479;SDS011;13393;49.378;8.686;2022-07-10T04:50:33;5.53;;;2.03;;
25479;SDS011;13393;49.378;8.686;2022-07-10T04:53:00;4.38;;;2.22;;
25479;SDS011;13393;49.378;8.686;2022-07-10T04:55:26;3.03;;;1.50;;
25479;SDS011;13393;49.378;8.686;2022-07-10T04:57:53;6.60;;;1.77;;
25479;SDS011;13393;49.378;8.686;2022-07-10T05:00:19;7.90;;;2.13;;
25479;SDS011;13393;49.378;8.686;2022-07-10T05:02:46;3.95;;;1.65;;
25479;SDS011;13393;49.378;8.686;2022-07-10T05:05:14;3.25;;;1.70;;
25479;SDS011;13393;49.378;8.686;2022-07-10T05:07:40;3.25;;;1.77;;
25479;SDS011;13393;49.378;8.686;2022-07-10T05:10:07;4.72;;;1.90;;
25479;SDS011;13393;49.378;8.686;2022-07-10T05:12:34;5.15;;;2.13;;
25479;SDS011;13393;49.378;8.686;2022-07-10T05:15:00;3.83;;;1.90;;
25479;SDS011;13393;49.378;8.686;2022-07-10T05:17:26;6.10;;;2.13;;
25479;SDS011;13393;49.378;8.686;2022-07-10T05:19:54;4.15;;;1.60;;
25479;SDS011;13393;49.378;8.686;2022-07-10T05:22:23;4.00;;;1.75;;
25479;SDS011;13393;49.378;8.686;2022-07-10T05:24:49;4.00;;;1.58;;
25479;SDS011;13393;49.378;8.686;2022-07-10T05:27:16;3.63;;;1.80;;
25479;SDS011;13393;49.378;8.686;2022-07-10T05:29:45;6.28;;;1.95;;
25479;SDS011;13393;49.378;8.686;2022-07-10T05:32:11;5.03;;;1.98;;
25479;SDS011;13393;49.378;8.686;2022-07-10T05:34:38;3.72;;;1.70;;
25479;SDS011;13393;49.378;8.686;2022-07-10T05:37:04;6.35;;;2.08;;
25479;SDS011;13393;49.378;8.686;2022-07-10T05:39:33;4.07;;;1.88;;
25479;SDS011;13393;49.378;8.686;2022-07-10T05:42:00;4.15;;;1.67;;
25479;SDS011;13393;49.378;8.686;2022-07-10T05:44:26;5.38;;;1.80;;
25479;SDS011;13393;49.378;8.686;2022-07-10T05:46:53;4.00;;;1.70;;
25479;SDS011;13393;49.378;8.686;2022-07-10T05:49:19;5.20;;;1.98;;
25479;SDS011;13393;49.378;8.686;2022-07-10T05:51:46;4.80;;;1.92;;
25479;SDS011;13393;49.378;8.686;2022-07-10T05:54:12;5.38;;;1.73;;
25479;SDS011;13393;49.378;8.686;2022-07-10T05:56:40;8.32;;;1.95;;
25479;SDS011;13393;49.378;8.686;2022-07-10T05:59:07;6.53;;;1.42;;
25479;SDS011;13393;49.378;8.686;2022-07-10T06:01:33;5.05;;;1.73;;
25479;SDS011;13393;49.378;8.686;2022-07-10T06:04:00;4.28;;;1.40;;
25479;SDS011;13393;49.378;8.686;2022-07-10T06:06:27;6.03;;;2.00;;
25479;SDS011;13393;49.378;8.686;2022-07-10T06:08:53;3.55;;;1.40;;
25479;SDS011;13393;49.378;8.686;2022-07-10T06:11:20;2.63;;;1.42;;
25479;SDS011;13393;49.378;8.686;2022-07-10T06:13:48;3.50;;;1.55;;
25479;SDS011;13393;49.378;8.686;2022-07-10T06:16:14;5.20;;;1.70;;
25479;SDS011;13393;49.378;8.686;2022-07-10T06:18:41;5.03;;;1.40;;
25479;SDS011;13393;49.378;8.686;2022-07-10T06:21:07;4.07;;;1.50;;
25479;SDS011;13393;49.378;8.686;2022-07-10T06:23:37;4.45;;;1.65;;
25479;SDS011;13393;49.378;8.686;2022-07-10T06:26:03;5.40;;;1.48;;
25479;SDS011;13393;49.378;8.686;2022-07-10T06:28:30;4.65;;;1.60;;
25479;SDS011;13393;49.378;8.686;2022-07-10T06:30:58;6.25;;;1.40;;
25479;SDS011;13393;49.378;8.686;2022-07-10T06:33:24;5.40;;;2.03;;
25479;SDS011;13393;49.378;8.686;2022-07-10T06:35:51;4.40;;;1.50;;
25479;SDS011;13393;49.378;8.686;2022-07-10T06:38:17;6.28;;;2.00;;
25479;SDS011;13393;49.378;8.686;2022-07-10T06:40:44;6.95;;;2.10;;
25479;SDS011;13393;49.378;8.686;2022-07-10T06:43:11;7.78;;;2.13;;
25479;SDS011;13393;49.378;8.686;2022-07-10T06:45:38;6.32;;;2.10;;
25479;SDS011;13393;49.378;8.686;2022-07-10T06:48:06;4.45;;;1.42;;
25479;SDS011;13393;49.378;8.686;2022-07-10T06:50:32;5.70;;;1.40;;
25479;SDS011;13393;49.378;8.686;2022-07-10T06:52:59;6.65;;;1.60;;
25479;SDS011;13393;49.378;8.686;2022-07-10T06:55:26;6.78;;;2.28;;
25479;SDS011;13393;49.378;8.686;2022-07-10T06:57:53;3.97;;;1.73;;
25479;SDS011;13393;49.378;8.686;2022-07-10T07:00:20;3.67;;;1.33;;
25479;SDS011;13393;49.378;8.686;2022-07-10T07:02:46;6.82;;;1.50;;
25479;SDS011;13393;49.378;8.686;2022-07-10T07:05:14;9.13;;;1.77;;
25479;SDS011;13393;49.378;8.686;2022-07-10T07:07:41;3.95;;;1.30;;
25479;SDS011;13393;49.378;8.686;2022-07-10T07:10:08;4.05;;;1.73;;
25479;SDS011;13393;49.378;8.686;2022-07-10T07:12:35;3.33;;;1.38;;
25479;SDS011;13393;49.378;8.686;2022-07-10T07:15:01;7.72;;;1.50;;
25479;SDS011;13393;49.378;8.686;2022-07-10T07:17:28;5.28;;;2.13;;
25479;SDS011;13393;49.378;8.686;2022-07-10T07:20:01;3.80;;;1.30;;
25479;SDS011;13393;49.378;8.686;2022-07-10T07:22:46;6.80;;;1.70;;
25479;SDS011;13393;49.378;8.686;2022-07-10T07:25:30;5.85;;;1.63;;
25479;SDS011;13393;49.378;8.686;2022-07-10T07:27:57;4.68;;;1.40;;
25479;SDS011;13393;49.378;8.686;2022-07-10T07:30:23;4.28;;;1.35;;
25479;SDS011;13393;49.378;8.686;2022-07-10T07:32:50;5.18;;;1.17;;
25479;SDS011;13393;49.378;8.686;2022-07-10T07:35:16;4.45;;;1.20;;
25479;SDS011;13393;49.378;8.686;2022-07-10T07:37:43;3.10;;;1.10;;
25479;SDS011;13393;49.378;8.686;2022-07-10T07:40:12;3.72;;;1.17;;
25479;SDS011;13393;49.378;8.686;2022-07-10T07:42:39;2.67;;;1.33;;
25479;SDS011;13393;49.378;8.686;2022-07-10T07:45:07;4.47;;;1.17;;
25479;SDS011;13393;49.378;8.686;2022-07-10T07:47:42;3.83;;;1.10;;
25479;SDS011;13393;49.378;8.686;2022-07-10T07:50:08;4.90;;;1.50;;
25479;SDS011;13393;49.378;8.686;2022-07-10T07:52:35;6.03;;;1.70;;
25479;SDS011;13393;49.378;8.686;2022-07-10T07:55:02;2.67;;;0.82;;
25479;SDS011;13393;49.378;8.686;2022-07-10T07:57:30;3.67;;;1.35;;
25479;SDS011;13393;49.378;8.686;2022-07-10T07:59:56;5.28;;;1.17;;
25479;SDS011;13393;49.378;8.686;2022-07-10T08:02:23;5.03;;;1.42;;
25479;SDS011;13393;49.378;8.686;2022-07-10T08:04:49;5.72;;;1.27;;
25479;SDS011;13393;49.378;8.686;2022-07-10T08:07:16;4.45;;;0.85;;
25479;SDS011;13393;49.378;8.686;2022-07-10T08:09:42;4.00;;;0.93;;
25479;SDS011;13393;49.378;8.686;2022-07-10T08:12:09;2.55;;;0.98;;
25479;SDS011;13393;49.378;8.686;2022-07-10T08:14:38;4.03;;;0.98;;
25479;SDS011;13393;49.378;8.686;2022-07-10T08:17:04;3.00;;;0.80;;
25479;SDS011;13393;49.378;8.686;2022-07-10T08:19:31;2.58;;;1.08;;
25479;SDS011;13393;49.378;8.686;2022-07-10T08:21:57;3.47;;;1.15;;
25479;SDS011;13393;49.378;8.686;2022-07-10T08:24:24;5.20;;;0.90;;
25479;SDS011;13393;49.378;8.686;2022-07-10T08:26:50;2.10;;;0.88;;
25479;SDS011;13393;49.378;8.686;2022-07-10T08:29:17;3.72;;;1.20;;
25479;SDS011;13393;49.378;8.686;2022-07-10T08:31:46;1.70;;;0.80;;
25479;SDS011;13393;49.378;8.686;2022-07-10T08:34:12;3.08;;;0.95;;
25479;SDS011;13393;49.378;8.686;2022-07-10T08:36:39;2.33;;;0.90;;
25479;SDS011;13393;49.378;8.686;2022-07-10T08:39:05;3.00;;;1.35;;
25479;SDS011;13393;49.378;8.686;2022-07-10T08:41:37;1.65;;;0.70;;
25479;SDS011;13393;49.378;8.686;2022-07-10T08:44:04;3.55;;;1.30;;
25479;SDS011;13393;49.378;8.686;2022-07-10T08:46:31;6.30;;;0.93;;
25479;SDS011;13393;49.378;8.686;2022-07-10T08:48:59;1.65;;;0.77;;
25479;SDS011;13393;49.378;8.686;2022-07-10T08:51:30;2.85;;;0.90;;
25479;SDS011;13393;49.378;8.686;2022-07-10T08:54:01;2.22;;;0.93;;
25479;SDS011;13393;49.378;8.686;2022-07-10T08:56:29;3.72;;;1.00;;
25479;SDS011;13393;49.378;8.686;2022-07-10T08:58:55;1.33;;;0.60;;
25479;SDS011;13393;49.378;8.686;2022-07-10T09:01:22;2.83;;;1.23;;
25479;SDS011;13393;49.378;8.686;2022-07-10T09:03:49;3.25;;;0.77;;
25479;SDS011;13393;49.378;8.686;2022-07-10T09:06:22;3.15;;;0.98;;
25479;SDS011;13393;49.378;8.686;2022-07-10T09:09:00;2.40;;;0.70;;
25479;SDS011;13393;49.378;8.686;2022-07-10T09:11:26;3.88;;;0.90;;
25479;SDS011;13393;49.378;8.686;2022-07-10T09:13:56;2.42;;;0.75;;
25479;SDS011;13393;49.378;8.686;2022-07-10T09:16:23;4.00;;;0.98;;
25479;SDS011;13393;49.378;8.686;2022-07-10T09:18:51;2.55;;;1.00;;
25479;SDS011;13393;49.378;8.686;2022-07-10T09:21:27;4.88;;;1.05;;
25479;SDS011;13393;49.378;8.686;2022-07-10T09:23:58;2.63;;;1.27;;
25479;SDS011;13393;49.378;8.686;2022-07-10T09:26:25;3.70;;;1.00;;
25479;SDS011;13393;49.378;8.686;2022-07-10T09:28:53;3.95;;;1.27;;
25479;SDS011;13393;49.378;8.686;2022-07-10T09:31:31;2.75;;;0.90;;
25479;SDS011;13393;49.378;8.686;2022-07-10T09:34:14;1.90;;;0.60;;
25479;SDS011;13393;49.378;8.686;2022-07-10T09:36:42;2.45;;;0.90;;
25479;SDS011;13393;49.378;8.686;2022-07-10T09:39:09;3.97;;;0.88;;
25479;SDS011;13393;49.378;8.686;2022-07-10T09:41:35;2.50;;;1.02;;
25479;SDS011;13393;49.378;8.686;2022-07-10T09:44:03;2.50;;;1.10;;
25479;SDS011;13393;49.378;8.686;2022-07-10T09:46:30;2.58;;;0.73;;
25479;SDS011;13393;49.378;8.686;2022-07-10T09:49:01;3.08;;;0.80;;
25479;SDS011;13393;49.378;8.686;2022-07-10T09:51:29;2.30;;;0.80;;
25479;SDS011;13393;49.378;8.686;2022-07-10T09:53:57;1.95;;;0.80;;
25479;SDS011;13393;49.378;8.686;2022-07-10T09:56:25;3.92;;;1.17;;
25479;SDS011;13393;49.378;8.686;2022-07-10T09:58:52;2.33;;;0.80;;
25479;SDS011;13393;49.378;8.686;2022-07-10T10:01:24;2.05;;;0.80;;
25479;SDS011;13393;49.378;8.686;2022-07-10T10:03:52;3.72;;;0.90;;
25479;SDS011;13393;49.378;8.686;2022-07-10T10:06:19;2.00;;;0.63;;
25479;SDS011;13393;49.378;8.686;2022-07-10T10:08:48;1.77;;;0.70;;
25479;SDS011;13393;49.378;8.686;2022-07-10T10:11:19;4.60;;;0.70;;
25479;SDS011;13393;49.378;8.686;2022-07-10T10:13:47;2.88;;;1.05;;
25479;SDS011;13393;49.378;8.686;2022-07-10T10:16:14;3.17;;;1.08;;
25479;SDS011;13393;49.378;8.686;2022-07-10T10:18:41;3.53;;;0.95;;
25479;SDS011;13393;49.378;8.686;2022-07-10T10:21:22;4.57;;;1.30;;
25479;SDS011;13393;49.378;8.686;2022-07-10T10:23:49;4.90;;;1.15;;
25479;SDS011;13393;49.378;8.686;2022-07-10T10:26:16;2.75;;;1.08;;
25479;SDS011;13393;49.378;8.686;2022-07-10T10:28:44;6.00;;;0.95;;
25479;SDS011;13393;49.378;8.686;2022-07-10T10:31:11;3.13;;;1.38;;
25479;SDS011;13393;49.378;8.686;2022-07-10T10:33:44;3.58;;;0.90;;
25479;SDS011;13393;49.378;8.686;2022-07-10T10:36:12;2.97;;;1.00;;
25479;SDS011;13393;49.378;8.686;2022-07-10T10:41:25;3.78;;;1.00;;
25479;SDS011;13393;49.378;8.686;2022-07-10T10:46:35;3.28;;;1.00;;
25479;SDS011;13393;49.378;8.686;2022-07-10T10:49:03;4.63;;;1.38;;
25479;SDS011;13393;49.378;8.686;2022-07-10T10:54:12;2.33;;;0.90;;
25479;SDS011;13393;49.378;8.686;2022-07-10T10:56:39;3.30;;;1.00;;
25479;SDS011;13393;49.378;8.686;2022-07-10T10:59:08;4.75;;;1.30;;
25479;SDS011;13393;49.378;8.686;2022-07-10T11:01:37;1.90;;;0.98;;
25479;SDS011;13393;49.378;8.686;2022-07-10T11:04:13;2.45;;;1.25;;
25479;SDS011;13393;49.378;8.686;2022-07-10T11:06:41;3.72;;;0.95;;
25479;SDS011;13393;49.378;8.686;2022-07-10T11:09:20;1.77;;;0.70;;
25479;SDS011;13393;49.378;8.686;2022-07-10T11:11:57;5.43;;;1.17;;
25479;SDS011;13393;49.378;8.686;2022-07-10T11:14:23;1.63;;;0.70;;
25479;SDS011;13393;49.378;8.686;2022-07-10T11:16:55;3.00;;;1.00;;
25479;SDS011;13393;49.378;8.686;2022-07-10T11:19:22;2.75;;;0.90;;
25479;SDS011;13393;49.378;8.686;2022-07-10T11:21:49;3.45;;;0.82;;
25479;SDS011;13393;49.378;8.686;2022-07-10T11:24:24;2.80;;;0.80;;
25479;SDS011;13393;49.378;8.686;2022-07-10T11:26:58;2.53;;;0.93;;
25479;SDS011;13393;49.378;8.686;2022-07-10T11:29:28;4.20;;;1.00;;
25479;SDS011;13393;49.378;8.686;2022-07-10T11:32:06;3.03;;;0.82;;
25479;SDS011;13393;49.378;8.686;2022-07-10T11:34:36;3.42;;;1.10;;
25479;SDS011;13393;49.378;8.686;2022-07-10T11:37:03;4.68;;;0.80;;
25479;SDS011;13393;49.378;8.686;2022-07-10T11:39:29;2.33;;;1.10;;
25479;SDS011;13393;49.378;8.686;2022-07-10T11:41:56;1.70;;;0.80;;
25479;SDS011;13393;49.378;8.686;2022-07-10T11:44:25;1.85;;;0.73;;
25479;SDS011;13393;49.378;8.686;2022-07-10T11:46:52;1.88;;;0.90;;
25479;SDS011;13393;49.378;8.686;2022-07-10T11:49:22;3.97;;;1.27;;
25479;SDS011;13393;49.378;8.686;2022-07-10T11:51:48;1.10;;;0.93;;
25479;SDS011;13393;49.378;8.686;2022-07-10T11:54:16;2.17;;;0.75;;
25479;SDS011;13393;49.378;8.686;2022-07-10T11:56:45;2.85;;;0.85;;
25479;SDS011;13393;49.378;8.686;2022-07-10T11:59:13;2.83;;;1.40;;
25479;SDS011;13393;49.378;8.686;2022-07-10T12:01:40;6.53;;;1.30;;
25479;SDS011;13393;49.378;8.686;2022-07-10T12:04:07;1.45;;;0.85;;
25479;SDS011;13393;49.378;8.686;2022-07-10T12:06:36;2.85;;;1.00;;
25479;SDS011;13393;49.378;8.686;2022-07-10T12:09:03;2.50;;;0.90;;
25479;SDS011;13393;49.378;8.686;2022-07-10T12:11:30;1.75;;;0.93;;
25479;SDS011;13393;49.378;8.686;2022-07-10T12:14:08;3.08;;;1.13;;
25479;SDS011;13393;49.378;8.686;2022-07-10T12:16:35;3.28;;;0.70;;
25479;SDS011;13393;49.378;8.686;2022-07-10T12:19:01;7.78;;;1.38;;
25479;SDS011;13393;49.378;8.686;2022-07-10T12:21:28;1.88;;;0.82;;
25479;SDS011;13393;49.378;8.686;2022-07-10T12:23:57;2.95;;;0.90;;
25479;SDS011;13393;49.378;8.686;2022-07-10T12:26:25;2.65;;;1.10;;
25479;SDS011;13393;49.378;8.686;2022-07-10T12:28:57;3.20;;;1.30;;
25479;SDS011;13393;49.378;8.686;2022-07-10T12:31:24;3.63;;;1.20;;
25479;SDS011;13393;49.378;8.686;2022-07-10T12:33:56;1.83;;;0.80;;
25479;SDS011;13393;49.378;8.686;2022-07-10T12:38:53;3.38;;;1.10;;
25479;SDS011;13393;49.378;8.686;2022-07-10T12:41:21;1.88;;;0.90;;
25479;SDS011;13393;49.378;8.686;2022-07-10T12:43:49;3.13;;;1.02;;
25479;SDS011;13393;49.378;8.686;2022-07-10T12:46:17;4.72;;;1.58;;
25479;SDS011;13393;49.378;8.686;2022-07-10T12:49:00;3.38;;;1.13;;
25479;SDS011;13393;49.378;8.686;2022-07-10T12:51:27;2.22;;;1.00;;
25479;SDS011;13393;49.378;8.686;2022-07-10T12:53:54;3.50;;;1.63;;
25479;SDS011;13393;49.378;8.686;2022-07-10T12:56:32;5.60;;;1.00;;
25479;SDS011;13393;49.378;8.686;2022-07-10T12:58:59;1.95;;;1.00;;
25479;SDS011;13393;49.378;8.686;2022-07-10T13:01:26;1.63;;;1.00;;
25479;SDS011;13393;49.378;8.686;2022-07-10T13:03:57;2.00;;;0.75;;
25479;SDS011;13393;49.378;8.686;2022-07-10T13:06:27;2.63;;;1.00;;
25479;SDS011;13393;49.378;8.686;2022-07-10T13:08:54;2.97;;;1.35;;
25479;SDS011;13393;49.378;8.686;2022-07-10T13:11:20;2.75;;;0.90;;
25479;SDS011;13393;49.378;8.686;2022-07-10T13:13:49;6.07;;;1.38;;
25479;SDS011;13393;49.378;8.686;2022-07-10T13:16:15;3.40;;;1.10;;
25479;SDS011;13393;49.378;8.686;2022-07-10T13:18:43;2.90;;;0.98;;
25479;SDS011;13393;49.378;8.686;2022-07-10T13:21:10;2.25;;;1.10;;
25479;SDS011;13393;49.378;8.686;2022-07-10T13:23:37;3.22;;;1.05;;
25479;SDS011;13393;49.378;8.686;2022-07-10T13:26:04;4.50;;;1.30;;
25479;SDS011;13393;49.378;8.686;2022-07-10T13:28:31;3.28;;;1.02;;
25479;SDS011;13393;49.378;8.686;2022-07-10T13:31:01;3.33;;;1.10;;
25479;SDS011;13393;49.378;8.686;2022-07-10T13:33:27;5.85;;;1.20;;
25479;SDS011;13393;49.378;8.686;2022-07-10T13:35:54;2.80;;;1.10;;
25479;SDS011;13393;49.378;8.686;2022-07-10T13:38:20;3.05;;;1.23;;
25479;SDS011;13393;49.378;8.686;2022-07-10T13:40:48;5.85;;;1.65;;
25479;SDS011;13393;49.378;8.686;2022-07-10T13:43:15;3.20;;;0.98;;
25479;SDS011;13393;49.378;8.686;2022-07-10T13:45:42;5.20;;;1.20;;
25479;SDS011;13393;49.378;8.686;2022-07-10T13:48:11;2.78;;;1.08;;
25479;SDS011;13393;49.378;8.686;2022-07-10T13:50:37;3.33;;;1.20;;
25479;SDS011;13393;49.378;8.686;2022-07-10T13:53:04;1.83;;;0.95;;
25479;SDS011;13393;49.378;8.686;2022-07-10T13:55:30;6.40;;;1.33;;
25479;SDS011;13393;49.378;8.686;2022-07-10T13:57:57;3.75;;;1.35;;
25479;SDS011;13393;49.378;8.686;2022-07-10T14:00:24;4.05;;;1.05;;
25479;SDS011;13393;49.378;8.686;2022-07-10T14:02:51;3.42;;;1.25;;
25479;SDS011;13393;49.378;8.686;2022-07-10T14:05:22;2.20;;;1.05;;
25479;SDS011;13393;49.378;8.686;2022-07-10T14:07:49;2.90;;;1.10;;
25479;SDS011;13393;49.378;8.686;2022-07-10T14:10:15;2.13;;;0.88;;
25479;SDS011;13393;49.378;8.686;2022-07-10T14:12:41;1.67;;;1.00;;
25479;SDS011;13393;49.378;8.686;2022-07-10T14:15:08;2.90;;;1.10;;
25479;SDS011;13393;49.378;8.686;2022-07-10T14:17:35;5.22;;;1.08;;
25479;SDS011;13393;49.378;8.686;2022-07-10T14:20:02;5.30;;;1.25;;
25479;SDS011;13393;49.378;8.686;2022-07-10T14:22:29;2.50;;;1.05;;
25479;SDS011;13393;49.378;8.686;2022-07-10T14:24:56;5.78;;;1.40;;
25479;SDS011;13393;49.378;8.686;2022-07-10T14:27:23;4.28;;;1.30;;
25479;SDS011;13393;49.378;8.686;2022-07-10T14:29:50;2.35;;;0.90;;
25479;SDS011;13393;49.378;8.686;2022-07-10T14:32:16;3.35;;;1.23;;
25479;SDS011;13393;49.378;8.686;2022-07-10T14:34:43;4.65;;;1.33;;
25479;SDS011;13393;49.378;8.686;2022-07-10T14:37:09;4.15;;;1.20;;
25479;SDS011;13393;49.378;8.686;2022-07-10T14:39:37;4.78;;;1.83;;
25479;SDS011;13393;49.378;8.686;2022-07-10T14:42:04;2.28;;;0.98;;
25479;SDS011;13393;49.378;8.686;2022-07-10T14:44:32;5.35;;;1.52;;
25479;SDS011;13393;49.378;8.686;2022-07-10T14:46:58;3.13;;;1.35;;
25479;SDS011;13393;49.378;8.686;2022-07-10T14:49:25;3.97;;;1.35;;
25479;SDS011;13393;49.378;8.686;2022-07-10T14:51:51;4.47;;;2.05;;
25479;SDS011;13393;49.378;8.686;2022-07-10T14:54:19;3.10;;;1.38;;
25479;SDS011;13393;49.378;8.686;2022-07-10T14:56:47;2.65;;;1.13;;
25479;SDS011;13393;49.378;8.686;2022-07-10T14:59:14;5.80;;;1.20;;
25479;SDS011;13393;49.378;8.686;2022-07-10T15:01:40;3.13;;;1.38;;